Time;durP1;ratioP1;P1;durP2;ratioP2;P2;SDS_P1;SDS_P2;PMS_P1;PMS_P2;Temp;Humidity;BMP_temperature;BMP_pressure;BME280_temperature;BME280_humidity;BME280_pressure;Samples;Min_cycle;Max_cycle;Signal;HPM_P1;HPM_P2
2022/12/04 00:00:02;;;;;;;0.70;0.70;;;;;;;8.15;100.00;100608.69;5131667;27;20212;-66
2022/12/04 00:02:30;;;;;;;0.70;0.70;;;;;;;8.23;100.00;100601.88;5131721;27;20190;-66
2022/12/04 00:04:57;;;;;;;0.67;0.67;;;;;;;8.25;100.00;100597.59;5141924;27;20305;-66
2022/12/04 00:07:24;;;;;;;0.40;0.40;;;;;;;8.25;100.00;100600.16;5147605;27;20223;-66
2022/12/04 00:09:51;;;;;;;0.40;0.40;;;;;;;8.25;100.00;100589.94;5147281;27;20239;-66
2022/12/04 00:12:17;;;;;;;0.50;0.50;;;;;;;8.12;100.00;100583.13;5130941;27;20194;-66
2022/12/04 00:14:46;;;;;;;0.50;0.50;;;;;;;8.22;100.00;100600.16;5130656;27;20585;-67
2022/12/04 00:17:12;;;;;;;0.73;0.73;;;;;;;8.14;100.00;100604.41;5130385;27;22213;-67
2022/12/04 00:19:39;;;;;;;0.60;0.60;;;;;;;8.04;100.00;100607.84;5131701;27;20190;-66
2022/12/04 00:22:06;;;;;;;1.03;1.03;;;;;;;8.00;100.00;100603.59;5131364;27;20565;-66
2022/12/04 00:24:33;;;;;;;0.53;0.53;;;;;;;7.76;100.00;100583.16;5131241;27;21004;-66
2022/12/04 00:27:00;;;;;;;0.57;0.57;;;;;;;7.84;100.00;100602.75;5130983;27;20186;-65
2022/12/04 00:29:27;;;;;;;0.57;0.57;;;;;;;7.85;100.00;100614.66;5131447;27;20230;-66
2022/12/04 00:31:55;;;;;;;0.50;0.50;;;;;;;7.69;100.00;100589.13;5131332;27;20198;-66
2022/12/04 00:34:22;;;;;;;0.80;0.80;;;;;;;7.81;100.00;100605.31;5135835;27;20206;-66
2022/12/04 00:36:49;;;;;;;0.60;0.60;;;;;;;7.80;100.00;100601.03;5134584;27;20669;-67
2022/12/04 00:39:15;;;;;;;0.97;0.97;;;;;;;7.76;100.00;100603.56;5145588;27;20204;-66
2022/12/04 00:41:42;;;;;;;0.60;0.60;;;;;;;7.64;100.00;100583.16;5156075;27;20284;-66
2022/12/04 00:44:09;;;;;;;0.50;0.50;;;;;;;7.77;100.00;100610.41;5155925;27;20220;-65
2022/12/04 00:46:36;;;;;;;1.23;1.17;;;;;;;7.70;100.00;100603.59;5147502;27;20262;-66
2022/12/04 00:49:04;;;;;;;0.53;0.53;;;;;;;7.71;100.00;100612.94;5155924;27;20217;-67
2022/12/04 00:51:31;;;;;;;0.60;0.60;;;;;;;7.73;100.00;100604.44;5147351;27;20206;-67
2022/12/04 00:53:58;;;;;;;0.70;0.70;;;;;;;7.71;100.00;100600.19;5134602;27;20202;-66
2022/12/04 00:56:28;;;;;;;0.67;0.67;;;;;;;7.76;100.00;100598.47;5134752;27;20209;-66
2022/12/04 00:58:57;;;;;;;0.90;0.90;;;;;;;7.79;100.00;100598.47;5134271;27;20198;-66
2022/12/04 01:01:24;;;;;;;0.40;0.40;;;;;;;7.75;100.00;100596.78;5134953;27;20198;-66
2022/12/04 01:03:52;;;;;;;0.50;0.50;;;;;;;7.71;100.00;100595.09;5135213;27;20204;-66
2022/12/04 01:06:24;;;;;;;0.50;0.50;;;;;;;7.60;100.00;100574.66;5134752;27;20243;-65
2022/12/04 01:08:51;;;;;;;0.50;0.50;;;;;;;7.78;100.00;100591.69;5134726;27;20685;-66
2022/12/04 01:11:19;;;;;;;0.60;0.60;;;;;;;7.80;100.00;100597.63;5139805;27;20197;-66
2022/12/04 01:13:47;;;;;;;0.53;0.53;;;;;;;7.76;100.00;100590.81;5133429;27;20205;-66
2022/12/04 01:16:19;;;;;;;0.60;0.60;;;;;;;7.76;100.00;100596.78;5135033;27;20715;-66
2022/12/04 01:18:46;;;;;;;0.57;0.57;;;;;;;7.77;100.00;100595.94;5153413;27;20200;-67
2022/12/04 01:21:13;;;;;;;0.50;0.50;;;;;;;7.63;100.00;100576.34;5139647;27;20205;-66
2022/12/04 01:23:41;;;;;;;0.50;0.50;;;;;;;7.73;100.00;100598.47;5145103;27;20190;-66
2022/12/04 01:26:07;;;;;;;0.63;0.63;;;;;;;7.77;100.00;100600.19;5134537;27;20198;-66
2022/12/04 01:28:34;;;;;;;0.70;0.70;;;;;;;6.98;100.00;100467.47;5133849;27;20216;-66
2022/12/04 01:31:04;;;;;;;0.60;0.60;;;;;;;7.68;100.00;100610.41;5150284;27;20201;-66
2022/12/04 01:33:32;;;;;;;1.00;1.00;;;;;;;7.65;100.00;100612.94;5143696;27;20201;-66
2022/12/04 01:36:00;;;;;;;0.60;0.60;;;;;;;7.63;100.00;100607.81;5138137;27;20190;-66
2022/12/04 01:38:28;;;;;;;0.67;0.67;;;;;;;7.67;100.00;100608.69;5133990;27;20569;-66
2022/12/04 01:40:58;;;;;;;0.47;0.47;;;;;;;7.65;100.00;100612.94;5134180;27;20251;-66
2022/12/04 01:43:26;;;;;;;0.60;0.60;;;;;;;7.58;100.00;100603.56;5134490;27;20195;-66
2022/12/04 01:45:54;;;;;;;0.50;0.50;;;;;;;7.66;100.00;100612.06;5147544;27;20190;-66
2022/12/04 01:48:29;;;;;;;1.00;1.00;;;;;;;7.72;100.00;100602.72;5133875;27;20267;-66
2022/12/04 01:51:01;;;;;;;0.60;0.60;;;;;;;7.74;100.00;100600.19;5133900;27;20573;-66
2022/12/04 01:53:30;;;;;;;0.70;0.70;;;;;;;7.64;100.00;100601.03;5134022;27;20202;-66
2022/12/04 01:55:58;;;;;;;0.50;0.50;;;;;;;7.68;100.00;100597.63;5133937;27;20292;-66
2022/12/04 01:58:31;;;;;;;0.63;0.63;;;;;;;7.75;100.00;100597.66;5133741;27;20692;-66
2022/12/04 02:01:02;;;;;;;0.60;0.60;;;;;;;7.73;100.00;100598.47;5133809;27;20206;-66
2022/12/04 02:03:29;;;;;;;0.50;0.50;;;;;;;7.73;100.00;100594.22;5131523;27;20194;-66
2022/12/04 02:05:55;;;;;;;0.50;0.50;;;;;;;7.73;100.00;100585.72;5133767;27;20234;-66
2022/12/04 02:08:23;;;;;;;0.60;0.60;;;;;;;7.68;100.00;100579.78;5138559;27;20209;-66
2022/12/04 02:11:03;;;;;;;0.60;0.60;;;;;;;7.55;100.00;100588.25;5154229;27;20189;-66
2022/12/04 02:13:35;;;;;;;0.50;0.50;;;;;;;7.64;100.00;100590.81;5137319;27;20205;-66
2022/12/04 02:16:13;;;;;;;0.60;0.60;;;;;;;7.57;100.00;100596.75;5133440;27;20201;-66
2022/12/04 02:18:50;;;;;;;0.67;0.67;;;;;;;7.56;100.00;100587.44;5133008;27;20190;-66
2022/12/04 02:21:22;;;;;;;0.60;0.60;;;;;;;7.57;100.00;100586.56;5133256;27;20213;-66
2022/12/04 02:24:16;;;;;;;0.47;0.47;;;;;;;7.54;100.00;100594.22;5132726;27;20280;-66
2022/12/04 02:26:49;;;;;;;0.50;0.50;;;;;;;7.60;100.00;100596.75;5134150;27;20254;-66
2022/12/04 02:29:28;;;;;;;0.50;0.50;;;;;;;7.60;100.00;100591.66;5151096;27;20210;-67
2022/12/04 02:31:59;;;;;;;0.53;0.53;;;;;;;7.60;100.00;100596.75;5153939;27;20193;-66
2022/12/04 02:34:29;;;;;;;0.47;0.47;;;;;;;7.70;100.00;100588.25;5153891;27;20247;-66
2022/12/04 02:37:02;;;;;;;0.40;0.40;;;;;;;7.66;100.00;100589.09;5133290;27;20202;-66
2022/12/04 02:39:36;;;;;;;0.60;0.60;;;;;;;7.54;100.00;100596.75;5139481;27;20194;-66
2022/12/04 02:42:11;;;;;;;0.60;0.60;;;;;;;7.56;100.00;100595.09;5133042;27;20190;-66
2022/12/04 02:44:42;;;;;;;0.50;0.50;;;;;;;7.53;100.00;100595.06;5135169;27;20266;-66
2022/12/04 02:47:13;;;;;;;0.57;0.57;;;;;;;7.58;100.00;100594.22;5137783;27;20210;-66
2022/12/04 02:49:45;;;;;;;0.60;0.60;;;;;;;7.59;100.00;100601.03;5135839;27;20218;-66
2022/12/04 02:52:18;;;;;;;0.50;0.50;;;;;;;7.56;100.00;100590.81;5137728;27;20725;-66
2022/12/04 02:54:50;;;;;;;0.53;0.53;;;;;;;7.62;100.00;100595.09;5131654;27;20194;-66
2022/12/04 02:57:21;;;;;;;0.70;0.70;;;;;;;7.59;100.00;100595.09;5131407;27;20194;-65
2022/12/04 02:59:51;;;;;;;0.50;0.50;;;;;;;7.59;100.00;100589.97;5132649;27;20190;-66
2022/12/04 03:02:23;;;;;;;0.57;0.57;;;;;;;7.55;100.00;100586.56;5139794;27;20266;-65
2022/12/04 03:04:51;;;;;;;0.60;0.60;;;;;;;7.56;100.00;100590.81;5153293;27;20696;-66
2022/12/04 03:07:25;;;;;;;0.80;0.80;;;;;;;7.57;100.00;100591.66;5145934;27;20201;-66
2022/12/04 03:09:56;;;;;;;0.70;0.70;;;;;;;7.53;100.00;100597.63;5153250;27;20217;-66
2022/12/04 03:12:30;;;;;;;0.50;0.50;;;;;;;7.53;100.00;100595.06;5152872;27;20201;-66
2022/12/04 03:15:05;;;;;;;0.63;0.63;;;;;;;7.52;100.00;100588.25;5142814;27;20205;-66
2022/12/04 03:17:36;;;;;;;0.50;0.50;;;;;;;7.54;100.00;100584.00;5141893;27;20189;-66
2022/12/04 03:20:06;;;;;;;0.47;0.47;;;;;;;7.53;100.00;100582.31;5135641;27;20194;-66
2022/12/04 03:22:36;;;;;;;3.60;1.27;;;;;;;7.39;100.00;100578.06;5132253;27;20194;-65
2022/12/04 03:25:05;;;;;;;0.50;0.50;;;;;;;7.47;100.00;100580.59;5132126;27;20198;-66
2022/12/04 03:27:42;;;;;;;1.00;1.00;;;;;;;7.43;100.00;100586.56;5130969;27;20201;-66
2022/12/04 03:30:14;;;;;;;0.53;0.53;;;;;;;7.51;100.00;100591.66;5136057;27;20193;-67
2022/12/04 03:32:46;;;;;;;0.60;0.60;;;;;;;7.51;100.00;100596.75;5132817;27;20709;-66
2022/12/04 03:35:18;;;;;;;1.00;0.87;;;;;;;7.46;100.00;100588.25;5132170;27;20194;-66
2022/12/04 03:37:51;;;;;;;2.33;2.20;;;;;;;7.44;100.00;100584.84;5132121;27;20193;-66
2022/12/04 03:40:23;;;;;;;1.20;1.20;;;;;;;7.34;100.00;100579.72;5131839;27;20198;-66
2022/12/04 03:42:58;;;;;;;0.33;0.33;;;;;;;7.52;100.00;100593.38;5131710;27;20657;-65
2022/12/04 03:45:30;;;;;;;0.50;0.50;;;;;;;7.50;100.00;100589.94;5129678;27;20189;-66
2022/12/04 03:48:01;;;;;;;0.50;0.50;;;;;;;7.38;100.00;100591.66;5146763;27;20201;-66
2022/12/04 03:50:35;;;;;;;1.13;1.13;;;;;;;7.40;100.00;100599.28;5132966;27;20201;-66
2022/12/04 03:53:07;;;;;;;0.60;0.60;;;;;;;7.45;100.00;100596.75;5131647;27;20194;-66
2022/12/04 03:55:41;;;;;;;0.60;0.60;;;;;;;7.42;100.00;100601.84;5134328;27;20247;-66
2022/12/04 03:58:13;;;;;;;2.57;1.83;;;;;;;7.35;100.00;100591.63;5152108;27;20201;-66
2022/12/04 04:00:43;;;;;;;0.63;0.63;;;;;;;7.41;100.00;100593.34;5138546;27;20194;-66
2022/12/04 04:03:15;;;;;;;0.50;0.50;;;;;;;7.42;100.00;100601.84;5141069;27;20213;-66
2022/12/04 04:05:45;;;;;;;0.60;0.60;;;;;;;7.43;100.00;100598.47;5137056;27;20247;-66
2022/12/04 04:08:26;;;;;;;0.50;0.50;;;;;;;7.42;100.00;100601.84;5131022;27;20665;-66
2022/12/04 04:10:54;;;;;;;0.57;0.57;;;;;;;7.49;100.00;100603.56;5131599;27;20209;-66
2022/12/04 04:24:40;;;;;;;0.70;0.70;;;;;;;7.27;100.00;100569.53;5131414;27;20573;-66
2022/12/04 04:27:07;;;;;;;0.63;0.63;;;;;;;7.42;100.00;100597.59;5130881;27;20198;-66
2022/12/04 04:29:34;;;;;;;0.60;0.60;;;;;;;7.36;100.00;100598.47;5131347;27;20590;-66
2022/12/04 04:32:08;;;;;;;0.70;0.70;;;;;;;7.40;100.00;100595.03;5152100;27;20199;-66
2022/12/04 04:34:45;;;;;;;0.83;0.83;;;;;;;7.31;100.00;100594.16;5138924;27;20214;-66
2022/12/04 04:37:20;;;;;;;0.70;0.70;;;;;;;7.29;100.00;100606.94;5127767;27;20194;-66
2022/12/04 04:39:56;;;;;;;0.57;0.57;;;;;;;7.35;100.00;100617.16;5131294;27;20190;-66
2022/12/04 04:42:27;;;;;;;0.93;0.93;;;;;;;7.27;100.00;100606.06;5128995;27;20201;-66
2022/12/04 04:44:59;;;;;;;0.80;0.80;;;;;;;7.32;100.00;100617.16;5137497;27;20280;-66
2022/12/04 04:47:34;;;;;;;1.47;1.47;;;;;;;7.29;100.00;100609.50;5140601;27;20554;-66
2022/12/04 04:50:05;;;;;;;1.40;1.20;;;;;;;7.26;100.00;100618.81;5130205;27;20266;-66
2022/12/04 04:52:33;;;;;;;0.40;0.40;;;;;;;7.23;100.00;100606.94;5131116;27;20265;-66
2022/12/04 04:55:01;;;;;;;0.90;0.90;;;;;;;7.24;100.00;100608.59;5131120;27;20198;-66
2022/12/04 04:57:30;;;;;;;0.73;0.73;;;;;;;7.27;100.00;100618.81;5130812;27;20209;-66
2022/12/04 04:59:57;;;;;;;0.50;0.50;;;;;;;7.20;100.00;100623.91;5144317;27;20277;-66
2022/12/04 05:02:25;;;;;;;0.80;0.80;;;;;;;7.19;100.00;100620.50;5129011;27;20202;-65
2022/12/04 05:04:54;;;;;;;0.60;0.60;;;;;;;7.21;100.00;100618.81;5130541;27;20697;-66
2022/12/04 05:07:21;;;;;;;0.57;0.57;;;;;;;7.23;100.00;100624.78;5146393;27;20204;-66
2022/12/04 05:09:47;;;;;;;0.57;0.57;;;;;;;7.26;100.00;100631.56;5137467;27;21138;-68
2022/12/04 05:12:17;;;;;;;0.60;0.60;;;;;;;7.25;100.00;100635.81;5146075;27;20205;-66
2022/12/04 05:14:44;;;;;;;0.57;0.57;;;;;;;7.23;100.00;100631.56;5139625;27;20202;-66
2022/12/04 05:17:10;;;;;;;0.70;0.70;;;;;;;7.22;100.00;100630.72;5139549;27;20190;-66
2022/12/04 05:19:56;;;;;;;0.67;0.67;;;;;;;7.22;100.00;100637.50;5131577;27;20194;-65
2022/12/04 05:22:27;;;;;;;1.67;1.67;;;;;;;7.21;100.00;100641.75;5134670;27;20205;-67
2022/12/04 05:24:54;;;;;;;0.67;0.67;;;;;;;7.13;100.00;100633.25;5151932;27;20672;-66
2022/12/04 05:27:21;;;;;;;0.70;0.70;;;;;;;7.24;100.00;100643.47;5140138;27;20721;-66
2022/12/04 05:29:48;;;;;;;1.10;1.00;;;;;;;7.27;100.00;100646.88;5142357;27;20205;-67
2022/12/04 05:32:15;;;;;;;1.90;1.03;;;;;;;7.32;100.00;100647.75;5132008;27;20251;-66
2022/12/04 05:34:42;;;;;;;0.60;0.60;;;;;;;7.26;100.00;100652.84;5142401;27;20204;-66
2022/12/04 05:37:09;;;;;;;0.50;0.50;;;;;;;7.29;100.00;100650.28;5154935;27;20189;-66
2022/12/04 05:39:37;;;;;;;0.50;0.50;;;;;;;7.30;100.00;100648.59;5140639;27;20186;-66
2022/12/04 05:42:04;;;;;;;0.87;0.87;;;;;;;7.26;100.00;100647.75;5136251;27;20205;-66
2022/12/04 05:44:31;;;;;;;0.40;0.40;;;;;;;7.22;100.00;100651.13;5149000;27;20607;-66
2022/12/04 05:46:57;;;;;;;0.50;0.50;;;;;;;7.12;100.00;100631.53;5137890;27;20205;-66
2022/12/04 05:49:25;;;;;;;0.63;0.63;;;;;;;7.29;100.00;100647.75;5133822;27;20217;-66
2022/12/04 05:51:52;;;;;;;0.47;0.47;;;;;;;7.36;100.00;100649.47;5127993;27;20631;-67
2022/12/04 05:54:19;;;;;;;0.80;0.80;;;;;;;7.35;100.00;100647.75;5126600;27;20258;-66
2022/12/04 05:56:47;;;;;;;0.60;0.60;;;;;;;7.33;100.00;100663.91;5141824;27;20202;-66
2022/12/04 05:59:15;;;;;;;0.60;0.60;;;;;;;7.38;100.00;100668.19;5147022;27;20197;-66
2022/12/04 06:01:42;;;;;;;0.50;0.50;;;;;;;7.35;100.00;100663.06;5142870;27;20265;-66
2022/12/04 06:04:09;;;;;;;0.80;0.80;;;;;;;7.21;100.00;100634.09;5135707;27;20229;-66
2022/12/04 06:06:37;;;;;;;0.50;0.50;;;;;;;7.40;100.00;100671.56;5147097;27;20262;-66
2022/12/04 06:09:05;;;;;;;0.70;0.70;;;;;;;7.38;100.00;100660.53;5136599;27;20278;-66
2022/12/04 06:11:33;;;;;;;0.50;0.50;;;;;;;7.38;100.00;100663.06;5131217;27;20686;-66
2022/12/04 06:14:03;;;;;;;0.70;0.70;;;;;;;7.30;100.00;100666.47;5131766;27;20665;-66
2022/12/04 06:16:33;;;;;;;0.70;0.70;;;;;;;7.30;100.00;100671.56;5136398;27;20204;-66
2022/12/04 06:19:02;;;;;;;0.60;0.60;;;;;;;7.30;100.00;100666.47;5146238;27;20202;-66
2022/12/04 06:21:31;;;;;;;0.60;0.60;;;;;;;7.27;100.00;100669.81;5141948;27;20201;-66
2022/12/04 06:23:58;;;;;;;0.60;0.60;;;;;;;7.16;100.00;100656.19;5147755;27;20219;-66
2022/12/04 06:26:26;;;;;;;0.60;0.60;;;;;;;7.27;100.00;100674.94;5145288;27;20186;-66
2022/12/04 06:28:53;;;;;;;0.53;0.53;;;;;;;7.29;100.00;100686.00;5139128;27;20712;-66
2022/12/04 06:31:21;;;;;;;0.40;0.40;;;;;;;7.31;100.00;100686.84;5132971;27;20209;-66
2022/12/04 06:33:48;;;;;;;0.83;0.83;;;;;;;7.29;100.00;100678.34;5132999;27;20202;-66
2022/12/04 06:36:17;;;;;;;0.57;0.57;;;;;;;7.33;100.00;100690.25;5130674;27;20661;-66
2022/12/04 06:38:45;;;;;;;0.60;0.60;;;;;;;7.18;100.00;100674.91;5131988;27;20201;-66
2022/12/04 06:41:15;;;;;;;0.53;0.53;;;;;;;7.36;100.00;100689.44;5141744;27;20186;-66
2022/12/04 06:43:42;;;;;;;1.37;1.37;;;;;;;7.25;100.00;100675.78;5128496;27;20678;-66
2022/12/04 06:46:10;;;;;;;0.80;0.80;;;;;;;7.13;100.00;100652.78;5147326;27;20205;-66
2022/12/04 06:48:39;;;;;;;0.73;0.73;;;;;;;7.31;100.00;100686.84;5134723;27;20199;-66
2022/12/04 06:51:08;;;;;;;0.50;0.50;;;;;;;7.32;100.00;100685.16;5144100;27;20253;-66
2022/12/04 06:53:35;;;;;;;0.70;0.70;;;;;;;7.24;100.00;100682.56;5153927;27;20572;-66
2022/12/04 06:56:04;;;;;;;0.70;0.70;;;;;;;7.30;100.00;100685.13;5135539;27;20190;-66
2022/12/04 06:58:31;;;;;;;3.10;1.27;;;;;;;7.25;100.00;100666.44;5132352;27;20203;-66
2022/12/04 07:00:59;;;;;;;0.40;0.40;;;;;;;7.31;100.00;100678.34;5128009;27;20588;-65
2022/12/04 07:03:26;;;;;;;0.90;0.90;;;;;;;7.29;100.00;100678.34;5128521;27;20202;-66
2022/12/04 07:05:54;;;;;;;0.57;0.57;;;;;;;7.36;100.00;100690.28;5131759;27;20229;-66
2022/12/04 07:08:21;;;;;;;0.50;0.50;;;;;;;7.37;100.00;100681.75;5131248;27;20198;-66
2022/12/04 07:10:48;;;;;;;2.10;1.90;;;;;;;7.35;100.00;100682.63;5144109;27;20270;-66
2022/12/04 07:13:15;;;;;;;1.30;1.30;;;;;;;7.35;100.00;100690.28;5131767;27;20213;-66
2022/12/04 07:15:41;;;;;;;0.50;0.50;;;;;;;7.32;100.00;100692.81;5131423;27;20194;-66
2022/12/04 07:18:13;;;;;;;0.70;0.70;;;;;;;7.29;100.00;100693.66;5126577;27;20224;-66
2022/12/04 07:20:40;;;;;;;0.60;0.60;;;;;;;7.27;100.00;100687.69;5140544;27;20561;-65
2022/12/04 07:23:08;;;;;;;0.67;0.67;;;;;;;7.31;100.00;100680.91;5144603;27;20205;-66
2022/12/04 07:25:39;;;;;;;0.80;0.80;;;;;;;7.29;100.00;100693.66;5133000;27;20209;-65
2022/12/04 07:28:06;;;;;;;1.03;1.03;;;;;;;7.26;100.00;100678.34;5125599;27;20206;-66
2022/12/04 07:30:33;;;;;;;0.40;0.40;;;;;;;7.32;100.00;100691.13;5126623;27;20252;-65
2022/12/04 07:33:00;;;;;;;0.40;0.40;;;;;;;7.39;100.00;100694.53;5131769;27;20656;-65
2022/12/04 07:35:26;;;;;;;0.60;0.60;;;;;;;7.44;100.00;100697.09;5138888;27;20200;-66
2022/12/04 07:37:53;;;;;;;0.60;0.60;;;;;;;7.37;100.00;100689.41;5142575;27;20254;-65
2022/12/04 07:40:21;;;;;;;0.70;0.70;;;;;;;7.34;100.00;100679.22;5138300;27;20250;-66
2022/12/04 07:42:48;;;;;;;0.70;0.70;;;;;;;7.35;100.00;100688.56;5134039;27;20202;-66
2022/12/04 07:45:15;;;;;;;0.70;0.70;;;;;;;7.29;100.00;100693.66;5131985;27;20198;-66
2022/12/04 07:47:42;;;;;;;0.80;0.80;;;;;;;7.36;100.00;100697.09;5131368;27;20274;-66
2022/12/04 07:50:09;;;;;;;0.52;0.52;;;;;;;7.48;100.00;100698.81;5134104;27;20528;-64
2022/12/04 07:52:36;;;;;;;0.63;0.63;;;;;;;7.56;100.00;100708.19;5138210;27;20197;-65
2022/12/04 07:55:03;;;;;;;0.60;0.60;;;;;;;7.48;100.00;100694.56;5131674;27;20198;-65
2022/12/04 07:57:32;;;;;;;1.53;1.53;;;;;;;7.51;100.00;100698.81;5135127;27;20580;-65
2022/12/04 07:59:59;;;;;;;0.50;0.50;;;;;;;7.49;100.00;100695.44;5152141;27;20200;-65
2022/12/04 08:02:26;;;;;;;0.60;0.60;;;;;;;7.52;100.00;100697.97;5133633;27;20194;-65
2022/12/04 08:04:53;;;;;;;1.23;1.23;;;;;;;7.46;100.00;100696.28;5137911;27;20217;-65
2022/12/04 08:07:19;;;;;;;1.23;1.23;;;;;;;7.35;100.00;100678.38;5152461;27;20204;-65
2022/12/04 08:09:46;;;;;;;2.13;1.47;;;;;;;7.39;100.00;100704.75;5143693;27;20209;-65
2022/12/04 08:12:13;;;;;;;0.60;0.60;;;;;;;7.50;100.00;100697.09;5147609;27;20588;-65
2022/12/04 08:14:41;;;;;;;0.50;0.50;;;;;;;7.53;100.00;100702.25;5128919;27;20190;-65
2022/12/04 08:17:08;;;;;;;2.73;1.47;;;;;;;7.49;100.00;100703.06;5130243;27;20229;-64
2022/12/04 08:19:35;;;;;;;1.23;1.23;;;;;;;7.53;100.00;100707.34;5130548;27;20196;-65
2022/12/04 08:22:01;;;;;;;0.80;0.80;;;;;;;7.54;100.00;100711.59;5130412;27;20202;-65
2022/12/04 08:24:28;;;;;;;0.60;0.60;;;;;;;7.49;100.00;100708.19;5131406;27;20197;-65
2022/12/04 08:26:57;;;;;;;0.60;0.60;;;;;;;7.46;100.00;100713.28;5131329;27;20212;-65
2022/12/04 08:29:24;;;;;;;0.47;0.47;;;;;;;7.45;100.00;100701.34;5144032;27;20684;-65
2022/12/04 08:31:52;;;;;;;0.67;0.67;;;;;;;7.52;100.00;100705.63;5150484;27;20626;-65
2022/12/04 08:34:19;;;;;;;1.10;1.10;;;;;;;7.53;100.00;100715.00;5144253;27;20197;-65
2022/12/04 08:36:46;;;;;;;1.23;1.23;;;;;;;7.49;100.00;100708.19;5152106;27;20197;-65
2022/12/04 08:39:15;;;;;;;0.67;0.67;;;;;;;7.42;100.00;100701.34;5149065;27;20657;-65
2022/12/04 08:41:42;;;;;;;0.70;0.70;;;;;;;7.42;100.00;100709.88;5152964;27;20193;-65
2022/12/04 08:44:10;;;;;;;1.20;1.20;;;;;;;7.48;100.00;100706.47;5151896;27;20194;-65
2022/12/04 08:46:37;;;;;;;0.47;0.47;;;;;;;7.41;100.00;100708.16;5151983;27;20258;-65
2022/12/04 08:49:05;;;;;;;0.50;0.50;;;;;;;7.48;100.00;100709.88;5145000;27;20204;-65
2022/12/04 08:51:33;;;;;;;0.73;0.73;;;;;;;7.44;100.00;100692.00;5136418;27;20198;-65
2022/12/04 08:54:02;;;;;;;0.43;0.43;;;;;;;7.44;100.00;100687.75;5139353;27;20266;-65
2022/12/04 08:56:31;;;;;;;0.70;0.70;;;;;;;7.49;100.00;100706.50;5135389;27;20205;-65
2022/12/04 08:58:58;;;;;;;1.47;1.47;;;;;;;7.45;100.00;100698.81;5135280;27;20574;-65
2022/12/04 09:01:26;;;;;;;0.50;0.50;;;;;;;7.47;100.00;100702.19;5134374;27;20711;-65
2022/12/04 09:03:54;;;;;;;0.80;0.80;;;;;;;7.48;100.00;100693.72;5134597;27;20208;-65
2022/12/04 09:06:23;;;;;;;0.70;0.70;;;;;;;7.47;100.00;100697.09;5141487;27;20216;-64
2022/12/04 09:08:53;;;;;;;0.83;0.83;;;;;;;7.48;100.00;100683.50;5144728;27;20202;-65
2022/12/04 09:11:24;;;;;;;0.67;0.67;;;;;;;7.52;100.00;100695.44;5133510;27;20487;-65
2022/12/04 09:13:52;;;;;;;0.70;0.70;;;;;;;7.50;100.00;100687.75;5134971;27;20198;-65
2022/12/04 09:16:24;;;;;;;0.70;0.70;;;;;;;7.55;100.00;100685.22;5134648;27;20197;-65
2022/12/04 09:18:52;;;;;;;0.80;0.80;;;;;;;7.37;100.00;100661.34;5135487;27;20680;-65
2022/12/04 09:21:23;;;;;;;0.60;0.60;;;;;;;7.49;100.00;100680.13;5152424;27;20198;-64
2022/12/04 09:23:51;;;;;;;0.67;0.67;;;;;;;7.53;100.00;100686.94;5134919;27;20198;-65
2022/12/04 09:26:30;;;;;;;1.10;1.10;;;;;;;7.53;100.00;100686.94;5135290;27;20201;-65
2022/12/04 09:29:03;;;;;;;0.83;0.83;;;;;;;7.54;100.00;100683.50;5155473;27;20201;-64
2022/12/04 09:31:33;;;;;;;0.50;0.50;;;;;;;7.50;100.00;100676.69;5146494;27;20593;-65
2022/12/04 09:34:01;;;;;;;0.53;0.53;;;;;;;7.53;100.00;100666.53;5155463;27;20197;-65
2022/12/04 09:36:30;;;;;;;0.93;0.93;;;;;;;7.48;100.00;100648.63;5155273;27;20197;-64
2022/12/04 09:39:01;;;;;;;0.60;0.60;;;;;;;7.53;100.00;100658.88;5134244;27;20206;-65
2022/12/04 09:42:05;;;;;;;0.57;0.57;;;;;;;7.50;100.00;100661.38;5133625;27;20210;-65
2022/12/04 09:44:37;;;;;;;0.50;0.50;;;;;;;7.53;100.00;100651.22;5122715;27;20665;-65
2022/12/04 09:47:09;;;;;;;1.17;1.17;;;;;;;7.55;100.00;100654.59;5150106;27;20281;-64
2022/12/04 09:49:41;;;;;;;0.50;0.50;;;;;;;7.54;100.00;100663.97;5140116;27;20200;-65
2022/12/04 09:52:30;;;;;;;0.60;0.60;;;;;;;7.54;100.00;100655.44;5154651;27;20324;-65
2022/12/04 09:55:00;;;;;;;0.63;0.63;;;;;;;7.52;100.00;100649.50;5135247;27;20680;-65
2022/12/04 09:57:39;;;;;;;0.50;0.50;;;;;;;7.51;100.00;100652.88;5154576;27;20198;-65
2022/12/04 10:00:13;;;;;;;0.80;0.80;;;;;;;7.37;100.00;100620.53;5144483;27;20651;-65
2022/12/04 10:02:44;;;;;;;1.37;1.27;;;;;;;7.62;100.00;100648.69;5130464;27;20198;-65
2022/12/04 10:05:26;;;;;;;0.93;0.93;;;;;;;7.59;100.00;100646.13;5145674;27;20312;-66
2022/12/04 10:08:06;;;;;;;0.60;0.60;;;;;;;7.63;100.00;100653.75;5131810;27;20221;-67
2022/12/04 10:10:39;;;;;;;0.50;0.50;;;;;;;7.60;100.00;100647.81;5134580;27;20286;-65
2022/12/04 10:13:21;;;;;;;0.80;0.80;;;;;;;7.54;100.00;100638.44;5132724;27;20202;-65
2022/12/04 10:15:55;;;;;;;0.50;0.50;;;;;;;7.50;100.00;100646.94;5132441;27;20558;-65
2022/12/04 10:18:42;;;;;;;0.80;0.80;;;;;;;7.51;100.00;100643.53;5131476;27;20271;-64
2022/12/04 10:21:25;;;;;;;0.70;0.70;;;;;;;7.52;100.00;100634.19;5145347;27;20197;-65
2022/12/04 10:24:16;;;;;;;0.70;0.70;;;;;;;7.50;100.00;100626.53;5140690;27;20653;-65
2022/12/04 10:26:48;;;;;;;0.60;0.60;;;;;;;7.51;100.00;100630.78;5136585;27;20194;-64
2022/12/04 10:29:21;;;;;;;1.60;1.60;;;;;;;7.52;100.00;100629.09;5139379;27;20198;-64
2022/12/04 10:31:51;;;;;;;0.67;0.67;;;;;;;7.43;100.00;100631.63;5133491;27;20685;-65
2022/12/04 10:34:24;;;;;;;1.17;1.17;;;;;;;7.52;100.00;100618.88;5137690;27;20253;-65
2022/12/04 10:36:55;;;;;;;0.53;0.53;;;;;;;7.50;100.00;100618.00;5144484;27;20307;-65
2022/12/04 10:39:27;;;;;;;0.73;0.73;;;;;;;7.50;100.00;100610.34;5147287;27;20197;-65
2022/12/04 10:42:00;;;;;;;0.60;0.60;;;;;;;7.52;100.00;100616.34;5146880;27;20189;-65
2022/12/04 10:44:29;;;;;;;1.10;1.10;;;;;;;7.58;100.00;100616.34;5152743;27;20224;-65
2022/12/04 10:47:04;;;;;;;0.70;0.70;;;;;;;7.52;100.00;100623.97;5153596;27;20257;-65
2022/12/04 10:49:33;;;;;;;0.50;0.50;;;;;;;7.58;100.00;100616.34;5142547;27;20242;-65
2022/12/04 10:52:02;;;;;;;1.97;1.90;;;;;;;7.57;100.00;100612.06;5143661;27;20208;-65
2022/12/04 10:54:34;;;;;;;2.03;1.93;;;;;;;7.54;100.00;100601.88;5153504;27;20261;-64
2022/12/04 10:57:03;;;;;;;0.60;0.60;;;;;;;7.52;100.00;100591.66;5142996;27;20278;-65
2022/12/04 10:59:33;;;;;;;0.70;0.70;;;;;;;7.52;100.00;100580.59;5149054;27;20533;-65
2022/12/04 11:02:07;;;;;;;0.60;0.60;;;;;;;7.50;100.00;100589.94;5135525;27;20209;-65
2022/12/04 11:04:36;;;;;;;0.50;0.50;;;;;;;7.27;100.00;100549.94;5132082;27;20208;-64
2022/12/04 11:07:09;;;;;;;0.60;0.60;;;;;;;7.47;100.00;100592.50;5129993;27;20194;-65
2022/12/04 11:09:37;;;;;;;0.70;0.70;;;;;;;7.42;100.00;100591.66;5131758;27;20223;-64
2022/12/04 11:12:17;;;;;;;0.60;0.60;;;;;;;7.44;100.00;100579.72;5132577;27;20210;-65
2022/12/04 11:14:44;;;;;;;0.50;0.50;;;;;;;7.49;100.00;100586.56;5131765;27;21018;-69
2022/12/04 11:17:16;;;;;;;0.50;0.50;;;;;;;7.67;100.00;100572.94;5136580;27;20473;-67
2022/12/04 11:19:43;;;;;;;0.40;0.40;;;;;;;7.70;100.00;100557.63;5133641;27;20202;-69
2022/12/04 11:22:16;;;;;;;0.50;0.50;;;;;;;7.77;100.00;100565.31;5131845;27;20198;-68
2022/12/04 11:24:51;;;;;;;0.60;0.60;;;;;;;7.66;100.00;100561.03;5140860;27;20266;-69
2022/12/04 11:27:27;;;;;;;0.40;0.40;;;;;;;7.74;100.00;100561.91;5145352;27;20730;-69
2022/12/04 11:29:56;;;;;;;0.70;0.70;;;;;;;7.69;100.00;100571.28;5130837;27;20202;-69
2022/12/04 11:32:26;;;;;;;0.70;0.70;;;;;;;7.64;100.00;100567.84;5129428;27;20581;-69
2022/12/04 11:34:58;;;;;;;1.00;1.00;;;;;;;7.62;100.00;100551.69;5128991;27;20205;-68
2022/12/04 11:37:27;;;;;;;0.80;0.80;;;;;;;7.60;100.00;100563.59;5131056;27;20577;-68
2022/12/04 11:39:56;;;;;;;0.80;0.80;;;;;;;7.56;100.00;100565.28;5137241;27;20217;-68
2022/12/04 11:42:26;;;;;;;0.70;0.70;;;;;;;7.34;100.00;100523.59;5129215;27;20202;-69
2022/12/04 11:44:55;;;;;;;0.77;0.77;;;;;;;7.50;100.00;100559.31;5129606;27;20206;-69
2022/12/04 11:47:25;;;;;;;0.70;0.70;;;;;;;7.57;100.00;100566.13;5122847;27;20289;-69